Time;durP1;ratioP1;P1;durP2;ratioP2;P2;SDS_P1;SDS_P2;PMS_P1;PMS_P2;Temp;Humidity;BMP_temperature;BMP_pressure;BME280_temperature;BME280_humidity;BME280_pressure;Samples;Min_cycle;Max_cycle;Signal;HPM_P1;HPM_P2
2022/12/27 00:00:23;;;;;;;;;;;;;;;7.00;74.07;99136.59;7392574;19;19936;-70
2022/12/27 00:02:50;;;;;;;;;;;;;;;6.75;74.47;99141.06;7389383;19;19922;-71
2022/12/27 00:05:17;;;;;;;;;;;;;;;6.91;74.37;99143.41;7385743;19;19918;-70
2022/12/27 00:07:43;;;;;;;;;;;;;;;6.81;74.82;99155.53;7383255;19;19923;-70
2022/12/27 00:10:10;;;;;;;;;;;;;;;6.84;74.59;99154.47;7388322;19;19915;-71
2022/12/27 00:12:36;;;;;;;;;;;;;;;6.70;74.43;99166.84;7385892;19;20265;-71
2022/12/27 00:15:03;;;;;;;;;;;;;;;6.87;74.16;99164.78;7384314;19;19910;-71
2022/12/27 00:17:30;;;;;;;;;;;;;;;6.81;74.17;99159.00;7392092;19;19946;-71
2022/12/27 00:19:57;;;;;;;;;;;;;;;6.67;74.38;99176.78;7384310;19;19923;-70
2022/12/27 00:22:24;;;;;;;;;;;;;;;6.73;74.45;99182.41;7390260;19;19919;-70
2022/12/27 00:24:50;;;;;;;;;;;;;;;6.71;73.96;99176.41;7385453;19;19930;-70
2022/12/27 00:27:17;;;;;;;;;;;;;;;6.59;74.04;99187.84;7386983;19;19922;-71
2022/12/27 00:29:43;;;;;;;;;;;;;;;6.52;74.01;99178.69;7386942;19;19919;-70
2022/12/27 00:32:12;;;;;;;;;;;;;;;6.46;74.13;99184.41;7386387;19;19970;-69
2022/12/27 00:34:39;;;;;;;;;;;;;;;6.44;74.14;99184.50;7383609;19;19986;-70
2022/12/27 00:37:08;;;;;;;;;;;;;;;6.47;74.02;99186.91;7387781;19;20401;-70
2022/12/27 00:39:35;;;;;;;;;;;;;;;6.35;74.59;99186.00;7386752;19;19931;-71
2022/12/27 00:42:02;;;;;;;;;;;;;;;6.36;73.75;99189.47;7386537;19;21167;-71
2022/12/27 00:44:29;;;;;;;;;;;;;;;6.34;73.97;99200.09;7384772;19;19918;-70
2022/12/27 00:46:55;;;;;;;;;;;;;;;6.20;74.33;99199.41;7389189;19;19947;-69
2022/12/27 00:49:23;;;;;;;;;;;;;;;6.08;74.03;99206.31;7385966;19;20006;-69
2022/12/27 00:51:50;;;;;;;;;;;;;;;6.17;74.16;99218.00;7390443;19;19923;-69
2022/12/27 00:54:16;;;;;;;;;;;;;;;5.93;74.06;99216.09;7388851;19;19926;-69
2022/12/27 00:56:44;;;;;;;;;;;;;;;6.19;73.44;99218.72;7391058;19;19926;-70
2022/12/27 00:59:13;;;;;;;;;;;;;;;5.80;74.25;99228.38;7379353;19;19923;-71
2022/12/27 01:01:40;;;;;;;;;;;;;;;5.73;73.00;99231.41;7385214;19;19915;-70
2022/12/27 01:04:07;;;;;;;;;;;;;;;5.88;73.68;99247.91;7386468;19;19926;-70
2022/12/27 01:06:33;;;;;;;;;;;;;;;5.86;72.87;99249.81;7383128;19;19915;-70
2022/12/27 01:09:00;;;;;;;;;;;;;;;5.87;72.72;99246.25;7382154;19;19929;-69
2022/12/27 01:11:27;;;;;;;;;;;;;;;5.71;73.16;99253.47;7385305;19;20272;-70
2022/12/27 01:13:55;;;;;;;;;;;;;;;5.81;72.97;99257.16;7386542;19;19923;-70
2022/12/27 01:16:22;;;;;;;;;;;;;;;5.72;73.23;99260.41;7385988;19;19969;-70
2022/12/27 01:18:48;;;;;;;;;;;;;;;5.61;72.85;99266.38;7383465;19;19931;-70
2022/12/27 01:21:16;;;;;;;;;;;;;;;5.79;72.68;99268.69;7381128;19;19930;-70
2022/12/27 01:23:42;;;;;;;;;;;;;;;5.71;72.15;99283.22;7387122;19;19947;-70
2022/12/27 01:26:10;;;;;;;;;;;;;;;5.50;72.12;99281.97;7386662;19;20246;-70
2022/12/27 01:28:37;;;;;;;;;;;;;;;5.53;72.72;99292.31;7380858;19;20296;-70
2022/12/27 01:31:08;;;;;;;;;;;;;;;5.49;73.06;99301.31;7387085;19;19947;-70
2022/12/27 01:33:34;;;;;;;;;;;;;;;5.54;73.21;99301.84;7384508;19;20376;-70
2022/12/27 01:36:08;;;;;;;;;;;;;;;5.39;73.03;99308.09;7382231;19;19922;-70
2022/12/27 01:38:35;;;;;;;;;;;;;;;5.35;72.51;99317.13;7387243;19;19910;-70
2022/12/27 01:42:50;;;;;;;;;;;;;;;5.32;72.85;99317.31;7386248;19;19986;-70
2022/12/27 01:43:48;;;;;;;;;;;;;;;5.26;73.38;99324.63;7390259;19;19914;-70
2022/12/27 01:46:14;;;;;;;;;;;;;;;5.07;73.89;99317.09;7388018;19;19957;-70
2022/12/27 01:48:41;;;;;;;;;;;;;;;5.02;73.63;99321.78;7384112;19;19990;-70
2022/12/27 01:51:07;;;;;;;;;;;;;;;4.94;74.36;99324.06;7386181;19;19929;-70
2022/12/27 01:53:36;;;;;;;;;;;;;;;4.98;73.87;99324.72;7379463;19;19947;-70
2022/12/27 01:56:04;;;;;;;;;;;;;;;4.98;74.03;99329.97;7386841;19;19961;-70
2022/12/27 01:58:41;;;;;;;;;;;;;;;4.86;74.33;99326.31;7386626;19;19927;-70
2022/12/27 02:01:15;;;;;;;;;;;;;;;4.78;74.52;99331.22;7382176;19;19919;-70
2022/12/27 02:04:01;;;;;;;;;;;;;;;4.68;74.85;99338.81;7385941;19;19919;-70
2022/12/27 02:06:28;;;;;;;;;;;;;;;4.58;75.26;99343.78;7385545;19;19921;-70
2022/12/27 02:09:02;;;;;;;;;;;;;;;4.56;74.92;99337.78;7374206;19;19922;-70
2022/12/27 02:14:15;;;;;;;;;;;;;;;4.48;75.23;99354.94;7385700;19;19919;-69
2022/12/27 02:16:41;;;;;;;;;;;;;;;4.29;75.53;99353.41;7384820;19;20286;-69
2022/12/27 02:19:16;;;;;;;;;;;;;;;4.21;75.91;99358.25;7376566;19;19930;-69
2022/12/27 02:21:42;;;;;;;;;;;;;;;4.13;75.87;99358.72;7381903;19;19911;-69
2022/12/27 02:24:41;;;;;;;;;;;;;;;4.19;76.19;99357.50;7381440;19;19926;-69
2022/12/27 02:27:11;;;;;;;;;;;;;;;4.22;76.07;99359.94;7379659;19;19925;-69
2022/12/27 02:29:40;;;;;;;;;;;;;;;4.37;75.85;99360.78;7382913;19;19915;-69
2022/12/27 02:32:19;;;;;;;;;;;;;;;4.28;76.25;99364.81;7383583;19;19930;-69
2022/12/27 02:35:01;;;;;;;;;;;;;;;4.17;76.15;99364.63;7384244;19;19914;-70
2022/12/27 02:37:28;;;;;;;;;;;;;;;4.21;76.09;99366.09;7385737;19;19927;-69
2022/12/27 02:39:54;;;;;;;;;;;;;;;4.33;76.28;99367.16;7380103;19;19911;-69
2022/12/27 02:53:49;;;;;;;;;;;;;;;4.02;76.69;99360.28;7390352;19;19918;-69
2022/12/27 02:59:13;;;;;;;;;;;;;;;3.92;77.09;99367.81;7388290;19;20351;-69
2022/12/27 03:05:06;;;;;;;;;;;;;;;3.87;76.90;99373.34;7387996;19;20558;-70
2022/12/27 03:07:44;;;;;;;;;;;;;;;3.85;76.94;99377.81;7389540;19;19946;-69
2022/12/27 03:16:02;;;;;;;;;;;;;;;3.82;77.33;99382.38;7391027;19;19923;-69
2022/12/27 03:18:41;;;;;;;;;;;;;;;3.83;77.32;99382.28;7388562;19;19930;-71
2022/12/27 03:26:41;;;;;;;;;;;;;;;3.80;77.27;99379.84;7392857;19;19990;-70
2022/12/27 03:34:40;;;;;;;;;;;;;;;3.63;77.28;99380.81;7387865;19;19986;-71
2022/12/27 03:40:05;;;;;;;;;;;;;;;3.46;77.67;99388.78;7387475;19;19938;-70
2022/12/27 03:45:19;;;;;;;;;;;;;;;3.46;77.58;99394.84;7391382;19;19953;-71
2022/12/27 03:47:48;;;;;;;;;;;;;;;3.34;78.25;99397.28;7391290;19;19930;-70
2022/12/27 03:50:24;;;;;;;;;;;;;;;3.41;77.82;99401.25;7388226;19;19940;-70
2022/12/27 03:52:52;;;;;;;;;;;;;;;3.39;77.74;99403.94;7390057;19;19943;-70
2022/12/27 03:55:19;;;;;;;;;;;;;;;3.42;77.79;99401.19;7391234;19;19947;-70
2022/12/27 03:57:45;;;;;;;;;;;;;;;3.54;77.73;99397.03;7389728;19;19923;-70
2022/12/27 04:00:12;;;;;;;;;;;;;;;3.66;77.49;99403.34;7387465;19;19930;-70
2022/12/27 04:02:39;;;;;;;;;;;;;;;3.66;77.37;99408.56;7391845;19;19940;-70
2022/12/27 04:05:06;;;;;;;;;;;;;;;3.49;77.92;99402.50;7387066;19;19919;-70
2022/12/27 04:07:32;;;;;;;;;;;;;;;3.46;77.54;99409.69;7389226;19;19911;-70
2022/12/27 04:34:46;;;;;;;;;;;;;;;3.79;76.04;99406.09;7388667;19;19927;-70
2022/12/27 04:37:14;;;;;;;;;;;;;;;3.74;76.20;99404.59;7385859;19;19929;-70
2022/12/27 04:39:41;;;;;;;;;;;;;;;3.69;76.47;99403.19;7375740;19;19930;-69
2022/12/27 04:56:04;;;;;;;;;;;;;;;3.26;76.55;99408.19;7384545;19;19918;-70
2022/12/27 04:58:31;;;;;;;;;;;;;;;3.17;76.82;99412.16;7385277;19;19930;-70
2022/12/27 05:03:44;;;;;;;;;;;;;;;3.17;77.09;99399.06;7386550;19;19914;-70
2022/12/27 05:06:11;;;;;;;;;;;;;;;3.15;77.22;99410.53;7384894;19;19956;-70
2022/12/27 05:14:09;;;;;;;;;;;;;;;3.06;77.33;99417.13;7386582;19;19915;-69
2022/12/27 05:16:37;;;;;;;;;;;;;;;2.99;77.50;99416.59;7386002;19;19923;-69
2022/12/27 05:19:04;;;;;;;;;;;;;;;3.11;77.73;99419.47;7385976;19;19918;-69
2022/12/27 05:21:35;;;;;;;;;;;;;;;3.29;77.04;99428.94;7385244;19;19919;-69
2022/12/27 05:26:47;;;;;;;;;;;;;;;3.18;76.88;99433.91;7385297;19;19914;-69
2022/12/27 05:29:14;;;;;;;;;;;;;;;3.11;77.15;99432.53;7379793;19;19934;-69
2022/12/27 05:31:40;;;;;;;;;;;;;;;3.11;77.19;99438.63;7380766;19;19918;-69
2022/12/27 05:34:07;;;;;;;;;;;;;;;3.14;77.45;99433.25;7384831;19;19926;-69
2022/12/27 05:36:33;;;;;;;;;;;;;;;3.15;77.17;99439.31;7388322;19;19930;-69
2022/12/27 05:39:00;;;;;;;;;;;;;;;3.35;76.87;99444.31;7380473;19;19930;-69
2022/12/27 05:41:26;;;;;;;;;;;;;;;3.32;76.92;99438.38;7385218;19;19917;-69
2022/12/27 05:43:53;;;;;;;;;;;;;;;3.35;76.54;99449.53;7384359;19;19926;-69
2022/12/27 05:46:20;;;;;;;;;;;;;;;3.34;77.05;99453.06;7384251;19;20340;-69
2022/12/27 05:48:47;;;;;;;;;;;;;;;3.38;76.33;99451.97;7384084;19;19967;-69
2022/12/27 05:51:14;;;;;;;;;;;;;;;3.36;76.35;99461.66;7389916;19;19914;-70
2022/12/27 05:53:41;;;;;;;;;;;;;;;3.45;75.98;99452.47;7389199;19;19922;-70
2022/12/27 05:56:08;;;;;;;;;;;;;;;3.47;75.97;99451.47;7385958;19;19915;-69
2022/12/27 05:58:34;;;;;;;;;;;;;;;3.42;76.23;99460.50;7385528;19;19915;-70
2022/12/27 06:01:05;;;;;;;;;;;;;;;3.45;76.04;99455.97;7385655;19;20288;-70
2022/12/27 06:03:32;;;;;;;;;;;;;;;3.45;76.13;99455.97;7385722;19;19952;-69
2022/12/27 06:06:00;;;;;;;;;;;;;;;3.41;76.25;99461.44;7388015;19;19938;-70
2022/12/27 06:08:27;;;;;;;;;;;;;;;3.38;76.07;99459.00;7387771;19;19922;-69
2022/12/27 06:11:04;;;;;;;;;;;;;;;3.15;76.48;99461.06;7385123;19;19947;-69
2022/12/27 06:13:30;;;;;;;;;;;;;;;3.13;76.86;99451.59;7384916;19;19918;-69
2022/12/27 06:16:00;;;;;;;;;;;;;;;3.14;76.90;99462.00;7387083;19;19926;-70
2022/12/27 06:18:27;;;;;;;;;;;;;;;3.17;76.92;99458.38;7382086;19;19922;-69
2022/12/27 06:20:54;;;;;;;;;;;;;;;3.18;76.89;99457.44;7382159;19;19918;-69
2022/12/27 06:23:20;;;;;;;;;;;;;;;3.32;76.45;99464.53;7386893;19;19926;-69
2022/12/27 06:25:47;;;;;;;;;;;;;;;3.35;76.29;99460.00;7387188;19;19926;-69
2022/12/27 06:28:13;;;;;;;;;;;;;;;3.38;76.41;99469.44;7385141;19;19932;-70
2022/12/27 06:30:40;;;;;;;;;;;;;;;3.43;76.34;99470.88;7382965;19;19933;-69
2022/12/27 06:33:07;;;;;;;;;;;;;;;3.43;76.26;99462.19;7381477;19;19922;-69
2022/12/27 06:35:33;;;;;;;;;;;;;;;3.35;76.27;99470.47;7378974;19;19919;-69
2022/12/27 06:38:00;;;;;;;;;;;;;;;3.33;76.17;99464.47;7383306;19;19970;-70
2022/12/27 06:40:26;;;;;;;;;;;;;;;3.39;76.11;99469.34;7380040;19;19923;-70
2022/12/27 06:42:53;;;;;;;;;;;;;;;3.40;76.08;99473.66;7382556;19;19956;-69
2022/12/27 06:45:20;;;;;;;;;;;;;;;3.33;76.24;99477.53;7379824;19;20350;-69
2022/12/27 06:47:46;;;;;;;;;;;;;;;3.26;76.31;99476.16;7370913;19;20344;-70
2022/12/27 06:50:13;;;;;;;;;;;;;;;3.22;76.43;99475.50;7374277;19;19923;-70
2022/12/27 06:52:39;;;;;;;;;;;;;;;3.29;76.33;99476.00;7374195;19;19915;-69
2022/12/27 06:55:06;;;;;;;;;;;;;;;3.23;76.39;99476.34;7381189;19;19918;-70
2022/12/27 06:57:33;;;;;;;;;;;;;;;3.24;76.24;99475.44;7379800;19;19961;-70
2022/12/27 06:59:59;;;;;;;;;;;;;;;3.28;75.91;99482.16;7375918;19;19919;-69
2022/12/27 07:02:26;;;;;;;;;;;;;;;3.39;75.60;99473.75;7380226;19;19933;-70
2022/12/27 07:04:53;;;;;;;;;;;;;;;3.40;75.39;99484.13;7380555;19;19919;-70
2022/12/27 07:07:19;;;;;;;;;;;;;;;3.47;75.42;99484.63;7375860;19;19976;-71
2022/12/27 07:09:46;;;;;;;;;;;;;;;3.38;75.67;99490.38;7377887;19;19915;-70
2022/12/27 07:12:12;;;;;;;;;;;;;;;3.38;75.93;99491.22;7379743;19;19994;-70
2022/12/27 07:14:39;;;;;;;;;;;;;;;3.43;75.51;99494.44;7377820;19;19923;-69
2022/12/27 07:17:06;;;;;;;;;;;;;;;3.44;75.49;99503.13;7380741;19;19934;-70
2022/12/27 07:19:32;;;;;;;;;;;;;;;3.43;75.24;99498.81;7381605;19;19906;-71
2022/12/27 07:21:59;;;;;;;;;;;;;;;3.45;75.63;99500.44;7382155;19;20264;-69
2022/12/27 07:24:25;;;;;;;;;;;;;;;3.42;75.70;99494.50;7374980;19;19915;-70
2022/12/27 07:26:52;;;;;;;;;;;;;;;3.44;75.49;99503.13;7377928;19;19919;-70
2022/12/27 07:29:19;;;;;;;;;;;;;;;3.41;75.72;99496.28;7377890;19;19923;-70
2022/12/27 07:31:46;;;;;;;;;;;;;;;3.48;75.49;99500.25;7381483;19;19922;-70
2022/12/27 07:34:12;;;;;;;;;;;;;;;3.52;75.14;99504.38;7378861;19;19986;-70
2022/12/27 07:36:39;;;;;;;;;;;;;;;3.48;75.47;99502.03;7385551;19;19933;-69
2022/12/27 07:39:06;;;;;;;;;;;;;;;3.55;75.30;99495.53;7383510;19;19922;-70
2022/12/27 07:41:34;;;;;;;;;;;;;;;3.57;75.80;99504.13;7386124;19;19946;-69
2022/12/27 07:44:01;;;;;;;;;;;;;;;3.57;75.74;99506.75;7386000;19;19934;-70
2022/12/27 07:46:27;;;;;;;;;;;;;;;3.67;75.85;99512.34;7389377;19;20391;-70
2022/12/27 07:48:54;;;;;;;;;;;;;;;3.72;75.86;99515.53;7387104;19;19933;-70
2022/12/27 07:51:21;;;;;;;;;;;;;;;3.80;76.08;99513.34;7390520;19;19919;-70
2022/12/27 07:53:48;;;;;;;;;;;;;;;3.95;75.65;99517.72;7389638;19;19926;-70
2022/12/27 07:56:16;;;;;;;;;;;;;;;4.03;74.89;99516.44;7386422;19;19922;-70
2022/12/27 07:58:51;;;;;;;;;;;;;;;4.02;74.17;99515.59;7388029;19;19947;-69
2022/12/27 08:01:18;;;;;;;;;;;;;;;4.13;74.67;99501.91;7384670;19;19954;-70
2022/12/27 08:03:46;;;;;;;;;;;;;;;4.24;74.17;99503.91;7385024;19;19930;-70
2022/12/27 08:06:31;;;;;;;;;;;;;;;4.31;74.07;99507.88;7390677;19;19910;-70
2022/12/27 08:08:58;;;;;;;;;;;;;;;4.42;73.45;99507.25;7386595;19;19926;-70
2022/12/27 08:11:28;;;;;;;;;;;;;;;4.44;73.42;99508.84;7388427;19;19919;-70
2022/12/27 08:13:55;;;;;;;;;;;;;;;4.42;73.05;99502.00;7386841;19;19943;-70
2022/12/27 08:16:22;;;;;;;;;;;;;;;4.35;72.94;99499.75;7382343;19;19922;-70
2022/12/27 08:18:49;;;;;;;;;;;;;;;4.52;72.33;99505.78;7382752;19;19919;-70
2022/12/27 08:21:15;;;;;;;;;;;;;;;4.54;72.31;99501.28;7382482;19;20352;-70
2022/12/27 08:23:42;;;;;;;;;;;;;;;4.58;72.62;99498.41;7390491;19;19933;-71
2022/12/27 08:26:09;;;;;;;;;;;;;;;4.61;72.44;99507.88;7388811;19;19923;-70
2022/12/27 08:28:35;;;;;;;;;;;;;;;4.57;72.74;99509.81;7387160;19;19949;-70
2022/12/27 08:31:04;;;;;;;;;;;;;;;4.54;72.36;99514.41;7384855;19;19943;-70
2022/12/27 08:33:30;;;;;;;;;;;;;;;4.71;72.70;99508.16;7385256;19;20673;-69
2022/12/27 08:35:57;;;;;;;;;;;;;;;4.85;72.35;99513.44;7385423;19;19931;-70
2022/12/27 08:38:24;;;;;;;;;;;;;;;4.92;72.91;99514.75;7388642;19;19927;-70
2022/12/27 08:40:50;;;;;;;;;;;;;;;5.02;72.60;99510.63;7385662;19;19959;-69
2022/12/27 08:43:17;;;;;;;;;;;;;;;4.98;72.23;99514.38;7389310;19;19926;-71
2022/12/27 08:45:43;;;;;;;;;;;;;;;5.06;71.80;99516.56;7386146;19;19918;-70
2022/12/27 08:48:10;;;;;;;;;;;;;;;5.18;71.64;99510.53;7384777;19;19922;-70
2022/12/27 08:50:37;;;;;;;;;;;;;;;5.22;71.50;99517.31;7385448;19;19927;-70
2022/12/27 08:53:04;;;;;;;;;;;;;;;5.26;71.67;99526.66;7385693;19;19932;-70
2022/12/27 08:55:32;;;;;;;;;;;;;;;5.27;71.22;99522.28;7383845;19;19934;-70
2022/12/27 08:58:03;;;;;;;;;;;;;;;5.29;71.30;99523.00;7385575;19;19923;-70
2022/12/27 09:00:35;;;;;;;;;;;;;;;5.28;70.98;99529.19;7379766;19;19929;-70
2022/12/27 09:03:02;;;;;;;;;;;;;;;5.36;70.53;99526.09;7382455;19;19982;-69
2022/12/27 09:05:28;;;;;;;;;;;;;;;5.36;70.33;99531.34;7383201;19;19918;-70
2022/12/27 09:07:56;;;;;;;;;;;;;;;5.39;70.88;99525.91;7382248;19;20291;-70
2022/12/27 09:10:23;;;;;;;;;;;;;;;5.22;70.65;99525.16;7385623;19;19987;-71
2022/12/27 09:12:49;;;;;;;;;;;;;;;5.39;70.87;99525.91;7387354;19;20266;-70
2022/12/27 09:15:16;;;;;;;;;;;;;;;5.48;71.07;99517.47;7381750;19;20972;-70
2022/12/27 09:17:43;;;;;;;;;;;;;;;5.66;71.14;99525.97;7386058;19;19922;-69
2022/12/27 09:20:11;;;;;;;;;;;;;;;5.70;71.21;99520.44;7382920;19;19929;-70
2022/12/27 09:22:38;;;;;;;;;;;;;;;5.70;70.45;99525.69;7382087;19;19923;-69
2022/12/27 09:25:04;;;;;;;;;;;;;;;5.70;70.66;99533.56;7386285;19;19919;-70
2022/12/27 09:27:32;;;;;;;;;;;;;;;5.65;70.91;99534.78;7385189;19;19919;-69
2022/12/27 09:29:59;;;;;;;;;;;;;;;5.70;70.51;99530.09;7380929;19;22494;-69
2022/12/27 09:32:27;;;;;;;;;;;;;;;5.76;69.87;99528.88;7385332;19;19970;-70
2022/12/27 09:34:57;;;;;;;;;;;;;;;6.04;70.42;99539.34;7384291;19;20285;-69
2022/12/27 09:37:27;;;;;;;;;;;;;;;6.04;70.45;99541.97;7381313;19;19925;-70
2022/12/27 09:39:53;;;;;;;;;;;;;;;6.03;69.97;99542.91;7381847;19;20003;-70
2022/12/27 09:42:25;;;;;;;;;;;;;;;6.08;69.49;99543.47;7385432;19;19919;-70
2022/12/27 09:45:15;;;;;;;;;;;;;;;6.18;69.42;99550.75;7382862;19;20643;-69
2022/12/27 09:47:47;;;;;;;;;;;;;;;6.36;69.30;99550.38;7384485;19;19919;-70
2022/12/27 09:50:24;;;;;;;;;;;;;;;6.51;68.90;99560.84;7385789;19;19930;-70
2022/12/27 09:52:57;;;;;;;;;;;;;;;6.56;69.13;99546.47;7383139;19;19929;-71
2022/12/27 09:55:44;;;;;;;;;;;;;;;6.62;68.38;99549.63;7378174;19;19922;-71
2022/12/27 09:58:22;;;;;;;;;;;;;;;6.84;68.30;99544.59;7381497;19;19918;-69
2022/12/27 10:00:49;;;;;;;;;;;;;;;6.96;68.83;99535.06;7384069;19;19986;-70
2022/12/27 10:03:18;;;;;;;;;;;;;;;7.11;69.02;99534.00;7379153;19;20328;-72
2022/12/27 10:05:45;;;;;;;;;;;;;;;7.08;68.24;99534.19;7386965;19;19994;-70
2022/12/27 10:08:18;;;;;;;;;;;;;;;6.88;66.96;99540.00;7382028;19;19915;-70
2022/12/27 10:11:34;;;;;;;;;;;;;;;6.92;67.15;99538.81;7378972;19;19918;-69
2022/12/27 10:14:18;;;;;;;;;;;;;;;7.01;66.30;99541.69;7379195;19;20821;-70
2022/12/27 10:16:52;;;;;;;;;;;;;;;6.92;66.15;99544.09;7383936;19;19918;-71
2022/12/27 10:19:51;;;;;;;;;;;;;;;6.81;66.01;99544.81;7381643;19;19915;-70
2022/12/27 10:22:24;;;;;;;;;;;;;;;7.00;66.66;99540.00;7380636;19;19950;-71
2022/12/27 10:24:54;;;;;;;;;;;;;;;7.02;65.40;99534.63;7381096;19;19921;-70
2022/12/27 10:27:23;;;;;;;;;;;;;;;7.15;65.67;99530.19;7380023;19;20240;-69
2022/12/27 10:29:56;;;;;;;;;;;;;;;7.22;64.88;99531.47;7376942;19;19919;-70
2022/12/27 10:32:23;;;;;;;;;;;;;;;7.34;66.33;99521.88;7383226;19;19918;-70
2022/12/27 10:34:56;;;;;;;;;;;;;;;7.43;65.71;99523.88;7386365;19;19940;-70
2022/12/27 10:37:23;;;;;;;;;;;;;;;7.40;66.70;99521.47;7382037;19;19918;-70
2022/12/27 10:39:52;;;;;;;;;;;;;;;7.52;66.43;99524.16;7380221;19;19925;-71
2022/12/27 10:42:58;;;;;;;;;;;;;;;7.53;65.61;99526.72;7381754;19;19926;-71
2022/12/27 10:45:41;;;;;;;;;;;;;;;7.69;66.19;99522.03;7375005;19;20389;-70
2022/12/27 10:48:13;;;;;;;;;;;;;;;7.66;63.18;99522.25;7374313;19;19927;-69
2022/12/27 10:50:46;;;;;;;;;;;;;;;7.60;63.97;99519.19;7383314;19;19929;-70
2022/12/27 10:53:31;;;;;;;;;;;;;;;7.56;62.70;99523.84;7383096;19;19919;-69
2022/12/27 10:56:16;;;;;;;;;;;;;;;7.63;63.95;99518.97;7382059;19;19922;-70
2022/12/27 10:58:47;;;;;;;;;;;;;;;7.52;63.76;99518.91;7377634;19;20776;-70
2022/12/27 11:01:22;;;;;;;;;;;;;;;7.59;64.32;99513.09;7375508;19;20296;-70
2022/12/27 11:03:49;;;;;;;;;;;;;;;7.61;64.00;99518.25;7377150;19;19937;-70
2022/12/27 11:06:23;;;;;;;;;;;;;;;7.64;64.03;99515.41;7382883;19;20331;-72
2022/12/27 11:08:51;;;;;;;;;;;;;;;7.60;63.31;99514.78;7381061;19;19911;-69
2022/12/27 11:11:21;;;;;;;;;;;;;;;7.77;63.40;99507.47;7389903;19;19927;-70
2022/12/27 11:13:48;;;;;;;;;;;;;;;7.78;63.85;99510.00;7387098;19;19926;-70
2022/12/27 11:16:27;;;;;;;;;;;;;;;7.83;63.31;99512.31;7390687;19;19918;-68
2022/12/27 11:18:54;;;;;;;;;;;;;;;7.83;63.89;99510.50;7385221;19;19939;-70
2022/12/27 11:21:21;;;;;;;;;;;;;;;7.70;63.49;99504.44;7382176;19;19922;-70
2022/12/27 11:23:59;;;;;;;;;;;;;;;7.80;64.24;99510.72;7390902;19;19982;-70
2022/12/27 11:26:27;;;;;;;;;;;;;;;7.84;63.89;99512.16;7393182;19;19915;-69
2022/12/27 11:28:54;;;;;;;;;;;;;;;8.11;65.02;99517.25;7386840;19;20280;-69
2022/12/27 11:31:43;;;;;;;;;;;;;;;7.99;63.53;99512.88;7387394;19;19919;-70
2022/12/27 11:34:16;;;;;;;;;;;;;;;8.05;64.31;99509.78;7385816;19;19944;-71
2022/12/27 11:36:44;;;;;;;;;;;;;;;7.94;63.08;99511.53;7385013;19;19960;-70
2022/12/27 11:39:32;;;;;;;;;;;;;;;7.80;63.55;99502.81;7384586;19;19943;-70
2022/12/27 11:41:58;;;;;;;;;;;;;;;8.07;65.05;99504.41;7387255;19;20264;-70
2022/12/27 11:44:28;;;;;;;;;;;;;;;8.04;63.85;99505.47;7386951;19;20328;-71
2022/12/27 11:46:57;;;;;;;;;;;;;;;7.94;63.13;99500.97;7385132;19;20701;-68
2022/12/27 11:49:30;;;;;;;;;;;;;;;7.75;64.06;99497.03;7388115;19;19930;-69
2022/12/27 11:51:57;;;;;;;;;;;;;;;7.73;64.89;99491.03;7382363;19;19926;-71
2022/12/27 11:54:45;;;;;;;;;;;;;;;7.70;64.50;99492.09;7387969;19;19919;-71
2022/12/27 11:57:17;;;;;;;;;;;;;;;7.84;64.46;99488.47;7384104;19;19923;-71
2022/12/27 11:59:55;;;;;;;;;;;;;;;7.77;63.21;99481.97;7387005;19;19918;-70
2022/12/27 12:02:25;;;;;;;;;;;;;;;7.90;64.09;99485.41;7385254;19;19923;-71
2022/12/27 12:04:54;;;;;;;;;;;;;;;7.93;63.94;99486.97;7390114;19;19911;-71
2022/12/27 12:07:40;;;;;;;;;;;;;;;8.10;62.50;99493.63;7391070;19;20331;-70
2022/12/27 12:10:10;;;;;;;;;;;;;;;8.27;62.33;99487.97;7383725;19;19943;-70
2022/12/27 12:12:49;;;;;;;;;;;;;;;8.42;62.60;99485.16;7386123;19;20509;-70
2022/12/27 12:15:29;;;;;;;;;;;;;;;8.77;62.40;99486.00;7388075;19;19911;-71
2022/12/27 12:17:58;;;;;;;;;;;;;;;8.87;62.41;99490.56;7378213;19;19919;-70
2022/12/27 12:20:35;;;;;;;;;;;;;;;8.81;59.71;99491.03;7386941;19;19918;-69
2022/12/27 12:23:05;;;;;;;;;;;;;;;8.86;61.59;99488.88;7386163;19;19922;-70
2022/12/27 12:26:05;;;;;;;;;;;;;;;9.13;61.09;99478.00;7385074;19;19947;-70
2022/12/27 12:28:32;;;;;;;;;;;;;;;9.02;60.54;99473.53;7381532;19;19958;-70
2022/12/27 12:31:28;;;;;;;;;;;;;;;8.97;61.27;99473.06;7387653;19;19994;-71
2022/12/27 12:34:07;;;;;;;;;;;;;;;8.89;60.14;99470.16;7389466;19;19923;-70
2022/12/27 12:36:50;;;;;;;;;;;;;;;8.71;60.33;99467.13;7391891;19;19932;-70
2022/12/27 12:39:27;;;;;;;;;;;;;;;8.93;61.77;99472.47;7386775;19;19915;-69
2022/12/27 12:41:54;;;;;;;;;;;;;;;9.11;62.11;99475.47;7384089;19;19930;-70
2022/12/27 12:44:33;;;;;;;;;;;;;;;9.13;60.80;99470.91;7385248;19;19919;-70
2022/12/27 12:47:07;;;;;;;;;;;;;;;9.02;62.22;99476.19;7388602;19;19931;-70
2022/12/27 12:49:44;;;;;;;;;;;;;;;9.16;60.58;99472.47;7386175;19;19982;-70
2022/12/27 12:52:30;;;;;;;;;;;;;;;9.29;62.05;99472.34;7389757;19;20807;-70
2022/12/27 12:55:15;;;;;;;;;;;;;;;9.16;61.53;99469.81;7390185;19;19923;-70
2022/12/27 12:58:00;;;;;;;;;;;;;;;9.06;62.05;99477.63;7386475;19;20300;-69
2022/12/27 13:00:35;;;;;;;;;;;;;;;9.18;59.97;99468.75;7382122;19;19928;-70
2022/12/27 13:03:20;;;;;;;;;;;;;;;9.33;60.82;99465.88;7386782;19;19915;-70
2022/12/27 13:05:59;;;;;;;;;;;;;;;9.41;61.80;99472.22;7386735;19;19933;-70
2022/12/27 13:08:47;;;;;;;;;;;;;;;9.22;61.65;99472.00;7381598;19;19929;-73
2022/12/27 13:11:21;;;;;;;;;;;;;;;9.26;61.43;99460.22;7387535;19;19922;-70
2022/12/27 13:13:50;;;;;;;;;;;;;;;9.31;61.86;99462.50;7386662;19;20348;-71
2022/12/27 13:16:36;;;;;;;;;;;;;;;9.28;61.99;99463.59;7385916;19;20010;-71
2022/12/27 13:19:22;;;;;;;;;;;;;;;9.44;62.08;99457.94;7382257;19;19952;-71
2022/12/27 13:21:57;;;;;;;;;;;;;;;9.38;62.49;99464.53;7383112;19;21570;-72
2022/12/27 13:24:27;;;;;;;;;;;;;;;9.26;62.12;99460.22;7386099;19;19982;-72
2022/12/27 13:27:04;;;;;;;;;;;;;;;9.29;62.37;99464.44;7388170;19;19915;-71
2022/12/27 13:29:40;;;;;;;;;;;;;;;9.18;63.85;99463.47;7384833;19;19915;-72
2022/12/27 13:32:26;;;;;;;;;;;;;;;9.01;63.09;99450.75;7383755;19;19919;-72
2022/12/27 13:34:57;;;;;;;;;;;;;;;9.01;63.64;99448.13;7385357;19;19918;-71
2022/12/27 13:37:37;;;;;;;;;;;;;;;8.95;63.76;99451.22;7386251;19;19915;-72
2022/12/27 13:40:05;;;;;;;;;;;;;;;8.99;64.85;99450.88;7387528;19;19923;-72
2022/12/27 13:42:38;;;;;;;;;;;;;;;8.95;63.97;99446.81;7387973;19;19941;-72
2022/12/27 13:45:20;;;;;;;;;;;;;;;8.98;63.82;99441.28;7388899;19;19925;-72
2022/12/27 13:47:50;;;;;;;;;;;;;;;8.99;63.44;99439.47;7386081;19;19926;-71
2022/12/27 13:50:17;;;;;;;;;;;;;;;8.79;64.07;99441.88;7386499;19;20414;-71
2022/12/27 13:53:11;;;;;;;;;;;;;;;8.71;64.05;99433.69;7389243;19;20294;-72
2022/12/27 13:55:40;;;;;;;;;;;;;;;8.77;63.68;99432.38;7387813;19;19938;-72
2022/12/27 13:58:26;;;;;;;;;;;;;;;8.67;63.93;99432.25;7387263;19;19925;-71
2022/12/27 14:00:55;;;;;;;;;;;;;;;8.63;64.17;99425.50;7387234;19;19923;-72
2022/12/27 14:03:28;;;;;;;;;;;;;;;8.57;64.14;99431.25;7383537;19;19911;-72
2022/12/27 14:09:14;;;;;;;;;;;;;;;8.15;65.81;99430.88;7356107;19;19936;-71
2022/12/27 14:11:44;;;;;;;;;;;;;;;8.26;66.25;99430.91;7380687;19;19915;-71
2022/12/27 14:14:14;;;;;;;;;;;;;;;8.17;65.27;99436.88;7376751;19;19943;-71
2022/12/27 14:16:46;;;;;;;;;;;;;;;8.23;64.79;99433.78;7382423;19;19923;-71
2022/12/27 14:19:31;;;;;;;;;;;;;;;8.34;64.78;99431.16;7380598;19;19946;-72
2022/12/27 14:22:10;;;;;;;;;;;;;;;8.25;65.83;99429.25;7379405;19;19923;-73
2022/12/27 14:24:55;;;;;;;;;;;;;;;8.40;63.94;99435.19;7382541;19;19926;-73
2022/12/27 14:27:24;;;;;;;;;;;;;;;8.46;63.86;99432.09;7385453;19;19938;-72
2022/12/27 14:30:03;;;;;;;;;;;;;;;8.47;65.58;99433.75;7384080;19;19966;-72
2022/12/27 14:32:40;;;;;;;;;;;;;;;8.43;65.48;99428.84;7384342;19;19915;-72
2022/12/27 14:35:19;;;;;;;;;;;;;;;8.38;66.44;99441.50;7383246;19;19925;-72
2022/12/27 14:37:51;;;;;;;;;;;;;;;8.30;64.87;99444.72;7382063;19;20277;-73
2022/12/27 14:40:37;;;;;;;;;;;;;;;8.54;64.63;99447.34;7382712;19;20364;-72
2022/12/27 14:43:06;;;;;;;;;;;;;;;8.66;64.55;99454.31;7383860;19;19918;-72
2022/12/27 14:45:35;;;;;;;;;;;;;;;8.58;63.31;99451.41;7393886;19;19925;-73
2022/12/27 14:48:02;;;;;;;;;;;;;;;8.57;63.87;99450.56;7389306;19;19922;-73
2022/12/27 14:50:51;;;;;;;;;;;;;;;8.48;65.48;99447.81;7395394;19;19911;-72
2022/12/27 14:53:36;;;;;;;;;;;;;;;8.42;66.62;99448.25;7388150;19;19927;-71